Time;durP1;ratioP1;P1;durP2;ratioP2;P2;SDS_P1;SDS_P2;PMS_P1;PMS_P2;Temp;Humidity;BMP_temperature;BMP_pressure;BME280_temperature;BME280_humidity;BME280_pressure;Samples;Min_cycle;Max_cycle;Signal;HPM_P1;HPM_P2
2022/06/16 00:01:06;;;;;;;5.95;4.38;;;;;;;21.26;52.54;101789.38;7396045;19;20014;-44
2022/06/16 00:03:34;;;;;;;5.70;4.00;;;;;;;21.20;53.51;101792.50;7399373;19;20017;-43
2022/06/16 00:06:06;;;;;;;6.13;3.92;;;;;;;21.18;53.36;101787.28;7398445;19;20022;-43
2022/06/16 00:08:35;;;;;;;5.20;4.03;;;;;;;21.17;53.52;101790.91;7402241;19;20019;-43
2022/06/16 00:13:46;;;;;;;7.43;4.10;;;;;;;20.97;54.12;101803.03;7398056;19;20022;-42
2022/06/16 00:16:15;;;;;;;6.20;3.90;;;;;;;20.90;55.28;101799.09;7395616;19;20040;-43
2022/06/16 00:18:45;;;;;;;6.60;4.22;;;;;;;20.88;54.83;101799.22;7397240;19;20077;-43
2022/06/16 00:21:17;;;;;;;5.55;4.13;;;;;;;21.04;54.76;101800.78;7396346;19;20018;-43
2022/06/16 00:23:46;;;;;;;7.65;4.20;;;;;;;21.06;54.59;101794.38;7397532;19;20026;-43
2022/06/16 00:26:17;;;;;;;5.78;4.15;;;;;;;21.02;54.96;101803.56;7398313;19;20027;-43
2022/06/16 00:28:47;;;;;;;8.50;4.50;;;;;;;21.00;54.91;101800.13;7401115;19;20018;-43
2022/06/16 00:31:18;;;;;;;8.68;4.55;;;;;;;21.06;55.00;101804.16;7400301;19;20387;-43
2022/06/16 00:33:48;;;;;;;10.07;4.40;;;;;;;21.07;54.34;101800.53;7401675;19;20022;-43
2022/06/16 00:36:21;;;;;;;6.30;3.75;;;;;;;20.79;54.79;101802.56;7397740;19;20007;-43
2022/06/16 00:38:50;;;;;;;8.18;4.28;;;;;;;20.88;55.44;101801.03;7397825;19;20349;-43
2022/06/16 00:41:19;;;;;;;6.88;4.28;;;;;;;20.82;55.26;101796.13;7396451;19;20022;-43
2022/06/16 00:43:48;;;;;;;6.38;4.13;;;;;;;20.62;56.22;101805.53;7400966;19;20014;-43
2022/06/16 00:46:19;;;;;;;9.50;4.30;;;;;;;20.53;56.86;101804.38;7403520;19;20025;-43
2022/06/16 00:48:51;;;;;;;8.60;4.20;;;;;;;20.62;55.53;101798.41;7403124;19;20079;-43
2022/06/16 00:51:26;;;;;;;;;;;;;;;20.54;55.68;101801.59;7402163;19;20026;-43
2022/06/16 00:54:00;;;;;;;6.95;4.32;;;;;;;20.54;56.02;101804.25;7404325;19;19978;-43
2022/06/16 00:56:29;;;;;;;5.07;3.65;;;;;;;20.47;56.54;101805.66;7396401;19;20018;-44
2022/06/16 00:59:01;;;;;;;6.35;4.22;;;;;;;20.60;54.71;101802.97;7397891;19;20015;-43
2022/06/16 01:01:31;;;;;;;6.85;3.90;;;;;;;20.50;55.29;101805.47;7393501;19;20724;-43
2022/06/16 01:06:46;;;;;;;6.32;4.28;;;;;;;20.28;56.71;101806.09;7396366;19;20023;-43
2022/06/16 01:09:19;;;;;;;7.88;4.50;;;;;;;20.42;56.15;101815.78;7395462;19;20015;-43
2022/06/16 01:15:06;;;;;;;5.97;4.10;;;;;;;20.21;56.50;101812.81;7395817;19;20025;-43
2022/06/16 01:17:43;;;;;;;6.07;4.32;;;;;;;20.24;56.26;101815.25;7393978;19;20018;-43
2022/06/16 01:20:20;;;;;;;7.70;4.22;;;;;;;19.99;57.78;101811.63;7393587;19;20148;-43
2022/06/16 01:23:14;;;;;;;7.60;4.20;;;;;;;20.16;57.13;101815.81;7395948;19;20018;-43
2022/06/16 01:25:55;;;;;;;8.32;4.40;;;;;;;20.10;57.44;101818.03;7393068;19;20051;-43
2022/06/16 01:28:29;;;;;;;7.47;4.35;;;;;;;20.05;58.37;101813.88;7392887;19;20018;-43
2022/06/16 01:31:09;;;;;;;6.28;4.50;;;;;;;20.20;57.21;101819.97;7392913;19;20017;-43
2022/06/16 01:33:43;;;;;;;6.88;4.78;;;;;;;20.09;57.87;101826.94;7394404;19;20024;-43
2022/06/16 01:36:20;;;;;;;6.45;4.32;;;;;;;20.04;58.09;101836.13;7393339;19;20017;-43
2022/06/16 01:38:57;;;;;;;6.55;4.47;;;;;;;20.23;58.22;101838.38;7392263;19;20034;-44
2022/06/16 01:41:41;;;;;;;8.15;4.55;;;;;;;20.12;57.79;101826.78;7392529;19;20036;-44
2022/06/16 01:44:15;;;;;;;6.70;4.25;;;;;;;20.13;58.58;101828.44;7396665;19;20029;-43
2022/06/16 01:46:55;;;;;;;6.22;4.70;;;;;;;19.86;59.84;101830.25;7395672;19;20095;-43
2022/06/16 01:49:31;;;;;;;11.05;5.22;;;;;;;19.76;60.38;101833.56;7394740;19;20011;-43
2022/06/16 01:52:04;;;;;;;7.00;4.82;;;;;;;19.93;60.07;101830.69;7392176;19;20015;-43
2022/06/16 01:54:38;;;;;;;7.47;4.93;;;;;;;19.76;60.48;101823.81;7393401;19;20025;-43
2022/06/16 01:57:13;;;;;;;6.25;4.78;;;;;;;19.82;60.29;101838.53;7392129;19;20018;-46
2022/06/16 01:59:50;;;;;;;6.82;4.95;;;;;;;19.61;62.06;101838.97;7392353;19;20078;-44
2022/06/16 02:02:23;;;;;;;7.80;5.43;;;;;;;19.66;62.68;101836.03;7394885;19;20074;-42
2022/06/16 02:04:58;;;;;;;6.78;4.63;;;;;;;19.58;62.39;101836.50;7400357;19;20018;-42
2022/06/16 02:07:34;;;;;;;9.18;5.40;;;;;;;19.58;63.09;101819.72;7395781;19;20026;-42
2022/06/16 02:10:15;;;;;;;10.05;5.53;;;;;;;19.69;62.93;101827.84;7394107;19;20114;-42
2022/06/16 02:12:59;;;;;;;8.02;5.40;;;;;;;19.86;61.51;101822.25;7394727;19;20026;-42
2022/06/16 02:15:51;;;;;;;6.07;5.13;;;;;;;19.76;62.89;101814.97;7394731;19;20391;-42
2022/06/16 02:18:25;;;;;;;8.10;5.10;;;;;;;19.52;63.57;101821.81;7394568;19;20007;-42
2022/06/16 02:21:01;;;;;;;10.25;5.88;;;;;;;19.57;63.40;101810.03;7394348;19;20483;-42
2022/06/16 02:23:31;;;;;;;9.60;5.72;;;;;;;19.39;64.04;101815.63;7393978;19;20017;-42
2022/06/16 02:26:01;;;;;;;9.32;5.13;;;;;;;19.16;64.86;101831.25;7393917;19;20034;-42
2022/06/16 02:28:31;;;;;;;9.55;5.68;;;;;;;19.27;65.01;101835.00;7392104;19;20122;-42
2022/06/16 02:31:15;;;;;;;8.63;5.78;;;;;;;19.32;65.65;101836.41;7393466;19;20082;-42
2022/06/16 02:34:02;;;;;;;9.68;5.63;;;;;;;19.45;65.29;101844.44;7394134;19;20077;-43
2022/06/16 02:36:48;;;;;;;7.50;5.55;;;;;;;19.57;64.03;101847.25;7393623;19;20035;-42
2022/06/16 02:39:30;;;;;;;9.20;5.68;;;;;;;19.41;63.96;101836.78;7395083;19;20573;-41
2022/06/16 02:42:16;;;;;;;8.32;5.57;;;;;;;19.26;64.37;101842.16;7396031;19;20116;-41
2022/06/16 02:44:57;;;;;;;7.82;5.30;;;;;;;19.41;62.63;101850.06;7399305;19;20523;-41
2022/06/16 02:50:36;;;;;;;7.93;5.13;;;;;;;19.36;62.47;101848.56;7392730;19;20021;-42
2022/06/16 02:53:16;;;;;;;5.80;4.90;;;;;;;19.21;62.32;101865.50;7395694;19;20011;-41
2022/06/16 02:55:50;;;;;;;6.53;4.75;;;;;;;19.25;62.89;101863.50;7396690;19;20156;-41
2022/06/16 02:58:22;;;;;;;7.53;5.05;;;;;;;19.16;62.36;101875.59;7396770;19;20044;-42
2022/06/16 03:00:54;;;;;;;9.50;5.20;;;;;;;19.15;63.24;101865.91;7396431;19;20539;-41
2022/06/16 03:03:24;;;;;;;;;;;;;;;19.27;63.13;101874.88;7396565;19;20078;-41
2022/06/16 03:06:17;;;;;;;8.60;5.40;;;;;;;19.29;62.65;101875.66;7404307;19;19919;-42
2022/06/16 03:08:53;;;;;;;11.15;5.82;;;;;;;19.06;63.33;101872.66;7405249;19;20043;-42
2022/06/16 03:11:21;;;;;;;8.25;5.07;;;;;;;19.11;62.50;101875.88;7406001;19;20039;-42
2022/06/16 03:13:50;;;;;;;6.65;4.80;;;;;;;18.99;64.26;101880.16;7402790;19;20022;-42
2022/06/16 03:16:36;;;;;;;7.90;5.10;;;;;;;19.18;63.24;101877.19;7402584;19;20014;-41
2022/06/16 03:19:04;;;;;;;7.68;5.38;;;;;;;19.19;62.86;101875.38;7405208;19;20015;-41
2022/06/16 03:21:37;;;;;;;8.48;5.20;;;;;;;19.04;63.99;101882.50;7399691;19;20007;-41
2022/06/16 03:24:07;;;;;;;8.70;5.30;;;;;;;19.02;64.72;101887.06;7394559;19;20053;-42
2022/06/16 03:26:37;;;;;;;9.27;5.35;;;;;;;19.00;64.82;101891.63;7394372;19;20014;-41
2022/06/16 03:29:06;;;;;;;7.60;5.28;;;;;;;18.90;65.04;101903.75;7393074;19;20013;-41
2022/06/16 03:31:35;;;;;;;8.23;5.47;;;;;;;18.91;66.13;101906.31;7393384;19;20018;-41
2022/06/16 03:34:04;;;;;;;6.53;5.10;;;;;;;18.82;66.84;101906.88;7393119;19;20025;-41
2022/06/16 03:36:40;;;;;;;9.27;5.68;;;;;;;18.83;66.16;101908.59;7393462;19;20086;-42
2022/06/16 03:39:18;;;;;;;10.65;6.10;;;;;;;18.81;66.67;101906.03;7390797;19;20021;-42
2022/06/16 03:41:52;;;;;;;6.80;5.30;;;;;;;18.91;65.41;101902.81;7391260;19;20482;-41
2022/06/16 03:44:21;;;;;;;10.30;5.57;;;;;;;18.89;66.22;101904.75;7393693;19;20015;-41
2022/06/16 03:46:52;;;;;;;10.25;5.80;;;;;;;18.80;67.40;101909.63;7392428;19;20018;-41
2022/06/16 03:49:29;;;;;;;7.65;5.38;;;;;;;18.83;67.65;101905.94;7391856;19;20024;-42
2022/06/16 03:52:01;;;;;;;9.65;6.07;;;;;;;18.91;67.79;101905.47;7391904;19;20007;-41
2022/06/16 03:54:36;;;;;;;8.07;5.80;;;;;;;19.03;66.98;101912.69;7391740;19;20474;-41
2022/06/16 03:57:09;;;;;;;8.45;5.80;;;;;;;18.97;67.17;101913.06;7390634;19;20014;-41
2022/06/16 03:59:38;;;;;;;8.90;5.88;;;;;;;18.78;67.14;101914.19;7391184;19;20014;-41
2022/06/16 04:02:36;;;;;;;9.68;6.38;;;;;;;18.76;68.77;101931.16;7396752;19;20014;-41
2022/06/16 04:05:09;;;;;;;11.35;5.60;;;;;;;18.68;69.00;101932.50;7402017;19;20011;-41
2022/06/16 04:07:45;;;;;;;8.30;6.03;;;;;;;18.80;69.34;101933.53;7400812;19;20082;-42
2022/06/16 04:10:17;;;;;;;9.25;5.93;;;;;;;18.82;68.98;101941.41;7400206;19;20010;-42
2022/06/16 04:12:48;;;;;;;9.63;5.95;;;;;;;18.80;69.43;101941.50;7400625;19;20018;-42
2022/06/16 04:15:23;;;;;;;10.65;6.78;;;;;;;18.62;70.42;101937.31;7401582;19;20011;-41
2022/06/16 04:17:53;;;;;;;8.35;5.50;;;;;;;18.61;70.79;101941.78;7398777;19;20019;-42
2022/06/16 04:20:25;;;;;;;9.90;6.17;;;;;;;18.63;70.52;101939.88;7399199;19;20108;-42
2022/06/16 04:23:01;;;;;;;10.60;6.05;;;;;;;18.53;71.81;101937.88;7398753;19;20070;-42
2022/06/16 04:25:34;;;;;;;8.67;6.30;;;;;;;18.53;71.46;101938.72;7399474;19;20048;-42
2022/06/16 04:28:13;;;;;;;9.23;6.10;;;;;;;18.58;71.32;101939.28;7399348;19;20447;-42
2022/06/16 04:30:49;;;;;;;10.05;6.13;;;;;;;18.66;70.38;101941.50;7400341;19;20010;-42
2022/06/16 04:33:23;;;;;;;10.57;6.22;;;;;;;18.62;71.00;101947.94;7398640;19;20010;-41
2022/06/16 04:35:53;;;;;;;16.63;6.85;;;;;;;18.88;71.84;101938.38;7399933;19;20014;-42
2022/06/16 04:38:28;;;;;;;11.07;6.13;;;;;;;18.61;72.31;101943.56;7397697;19;20747;-42
2022/06/16 04:41:01;;;;;;;11.60;7.32;;;;;;;18.67;72.12;101949.34;7400143;19;20018;-42
2022/06/16 04:43:33;;;;;;;16.23;7.28;;;;;;;18.71;71.99;101946.50;7399183;19;20011;-42
2022/06/16 04:46:05;;;;;;;9.43;6.07;;;;;;;18.72;71.74;101945.56;7400237;19;20014;-42
2022/06/16 04:48:46;;;;;;;8.38;6.63;;;;;;;18.53;73.58;101952.00;7399383;19;20015;-42
2022/06/16 04:51:17;;;;;;;14.05;7.38;;;;;;;18.83;72.59;101961.72;7398898;19;20034;-42
2022/06/16 04:53:52;;;;;;;10.60;6.60;;;;;;;18.83;72.82;101964.38;7397094;19;20049;-42
2022/06/16 04:56:37;;;;;;;9.25;6.70;;;;;;;18.73;72.93;101966.72;7397588;19;20011;-41
2022/06/16 04:59:23;;;;;;;10.35;7.13;;;;;;;18.75;73.65;101958.66;7396926;19;20021;-42
2022/06/16 05:02:11;;;;;;;8.82;6.60;;;;;;;18.62;74.58;101966.50;7398231;19;20117;-41
2022/06/16 05:05:03;;;;;;;8.57;6.15;;;;;;;18.82;73.67;101966.16;7398416;19;20015;-41
2022/06/16 05:07:55;;;;;;;10.93;7.10;;;;;;;18.95;73.52;101968.09;7399402;19;20019;-42
2022/06/16 05:10:55;;;;;;;9.82;6.30;;;;;;;18.95;74.36;101974.25;7398748;19;20323;-42
2022/06/16 05:13:44;;;;;;;9.18;6.10;;;;;;;18.94;75.52;101980.53;7395655;19;20025;-41
2022/06/16 05:16:34;;;;;;;10.30;6.22;;;;;;;19.01;74.29;101975.69;7398754;19;20023;-41
2022/06/16 05:19:18;;;;;;;53.42;9.23;;;;;;;19.06;74.99;101978.06;7400923;19;20011;-42
2022/06/16 05:22:10;;;;;;;12.77;5.90;;;;;;;19.07;74.62;101985.06;7402901;19;20019;-42
2022/06/16 05:24:56;;;;;;;9.77;6.20;;;;;;;19.00;75.00;101990.78;7405774;19;20019;-42
2022/06/16 05:27:40;;;;;;;16.58;5.50;;;;;;;18.89;76.87;101995.03;7400527;19;20058;-41
2022/06/16 05:30:27;;;;;;;7.30;4.82;;;;;;;18.98;76.24;102000.66;7399062;19;20498;-42
2022/06/16 05:33:08;;;;;;;32.90;5.55;;;;;;;19.24;74.54;102006.13;7397738;19;20022;-41
2022/06/16 05:36:00;;;;;;;9.27;4.70;;;;;;;19.18;75.46;102004.75;7397922;19;20018;-42
2022/06/16 05:39:08;;;;;;;9.93;4.50;;;;;;;19.39;72.88;102007.00;7398312;19;20055;-43
2022/06/16 05:42:03;;;;;;;22.65;4.53;;;;;;;19.41;73.31;102017.53;7396797;19;20025;-42
2022/06/16 05:44:53;;;;;;;12.50;4.82;;;;;;;19.71;73.00;102020.03;7395953;19;20025;-42
2022/06/16 05:47:30;;;;;;;21.70;4.70;;;;;;;19.63;73.19;102017.88;7396184;19;20010;-42
2022/06/16 05:50:01;;;;;;;36.30;4.70;;;;;;;19.58;71.14;102022.63;7393806;19;20011;-42
2022/06/16 05:52:30;;;;;;;36.35;4.97;;;;;;;19.60;70.88;102030.50;7395669;19;20017;-42
2022/06/16 05:55:13;;;;;;;6.30;3.20;;;;;;;19.71;68.95;102034.22;7392461;19;20025;-43
2022/06/16 05:57:42;;;;;;;27.63;4.03;;;;;;;19.84;69.78;102033.44;7392675;19;20478;-43
2022/06/16 06:00:16;;;;;;;6.50;2.97;;;;;;;19.95;67.57;102038.09;7392393;19;20039;-42
2022/06/16 06:02:57;;;;;;;16.30;3.80;;;;;;;19.99;68.10;102040.44;7395480;19;20021;-42
2022/06/16 06:05:29;;;;;;;;;;;;;;;19.73;69.04;102042.09;7395512;19;20026;-43
2022/06/16 06:18:51;;;;;;;7.10;2.70;;;;;;;20.14;66.37;102057.19;7392320;19;20007;-43
2022/06/16 06:21:57;;;;;;;6.07;2.17;;;;;;;20.21;62.64;102053.19;7392943;19;20014;-43
2022/06/16 06:24:09;;;;;;;3.53;2.03;;;;;;;20.12;62.86;102050.31;7396503;19;20483;-43
2022/06/16 06:26:38;;;;;;;6.35;2.58;;;;;;;20.21;62.87;102045.19;7393828;19;20538;-43
2022/06/16 06:29:11;;;;;;;7.78;2.40;;;;;;;20.31;61.34;102048.13;7393372;19;20002;-44
2022/06/16 06:31:43;;;;;;;4.03;2.05;;;;;;;20.23;60.33;102051.28;7393029;19;20022;-43
2022/06/16 06:34:12;;;;;;;6.85;1.90;;;;;;;20.28;61.76;102051.00;7393841;19;20017;-43
2022/06/16 06:36:40;;;;;;;6.30;2.28;;;;;;;20.37;62.23;102041.53;7393141;19;20018;-43
2022/06/16 06:39:11;;;;;;;6.97;2.03;;;;;;;20.57;59.29;102048.19;7390760;19;20029;-43
2022/06/16 06:41:40;;;;;;;6.15;2.10;;;;;;;20.58;60.25;102045.41;7398768;19;20015;-43
2022/06/16 06:44:09;;;;;;;4.43;1.77;;;;;;;20.61;57.80;102043.53;7398220;19;20011;-43
2022/06/16 06:46:38;;;;;;;3.05;1.73;;;;;;;20.60;55.79;102037.31;7397232;19;20106;-42
2022/06/16 06:49:09;;;;;;;4.90;1.60;;;;;;;20.54;53.38;102046.59;7393244;19;20018;-43
2022/06/16 06:51:39;;;;;;;6.80;2.17;;;;;;;20.67;53.72;102051.13;7394042;19;20014;-43
2022/06/16 06:54:08;;;;;;;5.00;1.88;;;;;;;20.81;52.91;102061.69;7394031;19;20014;-42
2022/06/16 06:56:37;;;;;;;14.75;2.10;;;;;;;21.03;52.90;102065.56;7393630;19;20026;-43
2022/06/16 06:59:13;;;;;;;2.45;1.45;;;;;;;21.04;51.84;102060.13;7391555;19;20014;-42
2022/06/16 07:01:42;;;;;;;11.23;2.47;;;;;;;21.08;52.16;102060.78;7393027;19;20014;-42
2022/06/16 07:04:14;;;;;;;12.13;1.80;;;;;;;21.15;52.30;102058.50;7394812;19;20014;-43
2022/06/16 07:06:43;;;;;;;3.97;1.80;;;;;;;21.29;48.99;102065.56;7394922;19;20098;-43
2022/06/16 07:09:12;;;;;;;6.18;1.77;;;;;;;21.31;50.17;102060.97;7391986;19;20018;-43
2022/06/16 07:11:42;;;;;;;4.68;1.50;;;;;;;21.37;49.67;102061.38;7392091;19;20015;-43
2022/06/16 07:14:11;;;;;;;2.50;1.60;;;;;;;21.47;49.49;102064.25;7393865;19;20014;-45
2022/06/16 07:16:40;;;;;;;7.28;1.98;;;;;;;21.35;50.41;102065.13;7393491;19;20003;-43
2022/06/16 07:19:09;;;;;;;4.57;1.92;;;;;;;21.41;48.12;102067.38;7390644;19;20019;-43
2022/06/16 07:21:41;;;;;;;5.43;1.85;;;;;;;21.40;47.78;102068.31;7392807;19;20013;-42
2022/06/16 07:24:10;;;;;;;4.90;1.80;;;;;;;21.54;48.60;102075.38;7392593;19;20014;-43
2022/06/16 07:26:39;;;;;;;6.03;1.90;;;;;;;21.43;47.60;102074.31;7392621;19;20011;-42
2022/06/16 07:29:10;;;;;;;4.30;2.00;;;;;;;21.69;47.48;102081.44;7390999;19;20010;-43
2022/06/16 07:31:39;;;;;;;7.97;2.00;;;;;;;21.70;48.93;102075.97;7398502;19;20018;-42
2022/06/16 07:34:08;;;;;;;12.50;2.05;;;;;;;21.67;49.01;102073.53;7396135;19;20018;-42
2022/06/16 07:36:37;;;;;;;6.30;1.67;;;;;;;21.95;48.95;102075.06;7396664;19;20013;-42
2022/06/16 07:39:09;;;;;;;3.42;1.80;;;;;;;21.97;49.45;102082.13;7399612;19;20018;-42
2022/06/16 07:41:39;;;;;;;5.32;2.00;;;;;;;21.95;48.21;102091.09;7404120;19;20015;-43
2022/06/16 07:44:09;;;;;;;4.18;2.17;;;;;;;22.18;48.52;102095.69;7404869;19;20089;-42
2022/06/16 07:46:39;;;;;;;5.50;1.80;;;;;;;22.16;49.47;102090.47;7404753;19;20025;-42
2022/06/16 07:49:12;;;;;;;4.82;1.92;;;;;;;22.27;49.64;102103.06;7404426;19;20018;-42
2022/06/16 07:51:42;;;;;;;3.70;2.00;;;;;;;22.48;49.16;102103.31;7409373;19;20018;-42
2022/06/16 07:54:14;;;;;;;3.58;1.90;;;;;;;22.34;49.49;102098.13;7403075;19;20015;-42
2022/06/16 07:56:43;;;;;;;4.30;1.67;;;;;;;22.43;49.38;102113.47;7405114;19;20025;-42
2022/06/16 07:59:12;;;;;;;4.68;2.30;;;;;;;22.52;47.52;102106.59;7402122;19;20278;-42
2022/06/16 08:01:42;;;;;;;6.25;2.53;;;;;;;22.55;48.15;102106.34;7400734;19;20486;-45
2022/06/16 08:04:11;;;;;;;7.78;3.58;;;;;;;22.67;48.85;102112.59;7400822;19;20450;-43
2022/06/16 08:06:42;;;;;;;6.03;2.67;;;;;;;22.76;47.85;102117.25;7402564;19;20030;-44
2022/06/16 08:09:14;;;;;;;9.00;2.25;;;;;;;22.90;46.30;102122.41;7397286;19;20028;-43
2022/06/16 08:14:24;;;;;;;3.88;2.00;;;;;;;23.10;45.04;102112.03;7397581;19;20031;-43
2022/06/16 08:16:53;;;;;;;5.57;1.98;;;;;;;23.13;45.03;102117.16;7399397;19;20019;-43
2022/06/16 08:19:22;;;;;;;7.75;2.10;;;;;;;23.17;43.80;102117.75;7396461;19;20014;-45
2022/06/16 08:21:52;;;;;;;4.97;2.47;;;;;;;23.28;43.92;102126.66;7397299;19;20014;-46
2022/06/16 08:24:23;;;;;;;4.57;2.33;;;;;;;23.20;43.46;102118.38;7396721;19;20018;-43
2022/06/16 08:26:53;;;;;;;7.60;2.90;;;;;;;23.24;43.00;102125.19;7399603;19;20014;-45
2022/06/16 08:29:22;;;;;;;5.13;2.00;;;;;;;23.31;42.31;102125.56;7398263;19;20010;-44
2022/06/16 08:31:51;;;;;;;7.63;2.05;;;;;;;23.33;41.62;102128.97;7397432;19;20423;-46
2022/06/16 08:34:20;;;;;;;5.03;2.05;;;;;;;23.43;42.71;102123.75;7396560;19;20086;-46
2022/06/16 08:36:49;;;;;;;6.57;2.47;;;;;;;23.53;42.74;102135.44;7397689;19;20018;-46
2022/06/16 08:39:18;;;;;;;4.63;2.30;;;;;;;23.75;43.13;102128.38;7395158;19;20014;-42
2022/06/16 08:41:53;;;;;;;12.38;2.53;;;;;;;23.84;43.12;102124.97;7397343;19;20021;-44
2022/06/16 08:44:30;;;;;;;9.10;2.25;;;;;;;23.71;43.63;102117.06;7396458;19;20014;-45
2022/06/16 08:47:05;;;;;;;3.22;1.88;;;;;;;23.83;42.61;102121.44;7397814;19;20342;-45
2022/06/16 08:49:40;;;;;;;6.22;2.03;;;;;;;23.92;42.31;102113.69;7395231;19;20490;-44
2022/06/16 08:52:22;;;;;;;6.60;2.20;;;;;;;23.94;42.00;102106.38;7398341;19;20077;-44
2022/06/16 08:55:04;;;;;;;9.30;2.63;;;;;;;24.12;41.50;102120.94;7398993;19;20044;-46
2022/06/16 08:57:45;;;;;;;3.63;2.22;;;;;;;24.12;41.36;102125.47;7397606;19;20491;-44
2022/06/16 09:00:18;;;;;;;4.78;2.10;;;;;;;24.11;42.24;102131.78;7397001;19;20006;-45
2022/06/16 09:02:52;;;;;;;6.30;2.35;;;;;;;24.02;41.25;102141.41;7396946;19;20029;-44
2022/06/16 09:05:36;;;;;;;4.68;2.30;;;;;;;24.02;42.23;102141.41;7398442;19;20456;-45
2022/06/16 09:08:18;;;;;;;7.38;2.35;;;;;;;24.21;42.12;102138.09;7399861;19;20058;-45
2022/06/16 09:11:00;;;;;;;6.32;2.28;;;;;;;24.27;41.17;102144.75;7403305;19;20018;-43
2022/06/16 09:14:03;;;;;;;9.45;2.50;;;;;;;24.48;41.06;102147.50;7401695;19;20019;-48
2022/06/16 09:16:45;;;;;;;3.75;2.30;;;;;;;24.01;40.24;102139.69;7402192;19;20015;-43
2022/06/16 09:19:33;;;;;;;11.43;3.17;;;;;;;24.21;42.64;102137.25;7398666;19;20017;-44
2022/06/16 09:22:16;;;;;;;13.15;2.90;;;;;;;24.74;43.61;102137.31;7401502;19;20025;-43
2022/06/16 09:24:56;;;;;;;;;;;;;;;24.82;40.53;102131.34;7399984;19;20022;-45
2022/06/16 09:27:31;;;;;;;5.57;2.55;;;;;;;24.77;41.02;102126.34;7400310;19;19918;-44
2022/06/16 09:30:08;;;;;;;7.57;2.60;;;;;;;24.68;39.48;102127.97;7399203;19;20019;-43
2022/06/16 09:32:41;;;;;;;6.43;2.70;;;;;;;24.87;41.41;102126.41;7397566;19;20043;-44
2022/06/16 09:35:16;;;;;;;7.20;2.67;;;;;;;25.04;40.21;102120.50;7398823;19;20053;-44
2022/06/16 09:37:49;;;;;;;8.25;2.10;;;;;;;25.17;40.84;102127.47;7399223;19;20446;-44
2022/06/16 09:40:24;;;;;;;5.18;2.17;;;;;;;25.24;39.80;102135.84;7395502;19;20019;-44
2022/06/16 09:43:02;;;;;;;6.03;2.72;;;;;;;25.33;39.29;102143.13;7396971;19;20014;-45
2022/06/16 09:45:38;;;;;;;6.70;2.40;;;;;;;25.27;39.82;102157.03;7396560;19;20011;-45
2022/06/16 09:48:11;;;;;;;6.63;2.53;;;;;;;25.50;40.87;102161.28;7396602;19;20019;-44
2022/06/16 09:50:46;;;;;;;9.98;2.60;;;;;;;25.58;39.48;102160.63;7396040;19;20018;-44
2022/06/16 09:53:19;;;;;;;5.05;2.58;;;;;;;25.61;40.33;102162.22;7396399;19;20018;-44
2022/06/16 09:55:53;;;;;;;6.95;2.65;;;;;;;25.71;40.00;102163.94;7396823;19;20122;-44
2022/06/16 09:58:30;;;;;;;10.13;2.95;;;;;;;25.90;39.28;102165.00;7395794;19;20018;-46
2022/06/16 10:01:07;;;;;;;4.03;2.40;;;;;;;25.94;40.09;102165.59;7395413;19;20014;-44
2022/06/16 10:03:42;;;;;;;4.47;2.30;;;;;;;26.07;39.07;102163.53;7395161;19;20025;-46
2022/06/16 10:06:22;;;;;;;5.63;2.42;;;;;;;26.03;38.51;102170.16;7395959;19;20015;-46
2022/06/16 10:08:57;;;;;;;4.25;2.25;;;;;;;26.00;39.96;102173.09;7394537;19;20066;-44
2022/06/16 10:11:39;;;;;;;5.45;3.05;;;;;;;26.07;38.33;102172.44;7396574;19;20011;-44
2022/06/16 10:14:16;;;;;;;7.88;2.42;;;;;;;26.29;39.58;102175.88;7393253;19;20070;-44
2022/06/16 10:16:55;;;;;;;4.18;2.33;;;;;;;26.33;39.22;102174.63;7396714;19;20011;-44
2022/06/16 10:19:26;;;;;;;45.97;5.85;;;;;;;26.34;39.08;102178.16;7394283;19;20590;-44
2022/06/16 10:21:55;;;;;;;12.60;2.70;;;;;;;26.49;38.43;102179.44;7395435;19;20018;-43
2022/06/16 10:24:39;;;;;;;4.13;2.30;;;;;;;26.57;38.65;102176.06;7393811;19;20029;-44
2022/06/16 10:27:11;;;;;;;6.22;2.75;;;;;;;26.69;39.53;102176.81;7397045;19;20641;-43
2022/06/16 10:29:40;;;;;;;7.63;2.42;;;;;;;26.61;39.89;102174.81;7393819;19;20491;-43
2022/06/16 10:32:19;;;;;;;3.97;2.33;;;;;;;26.67;37.76;102176.91;7394596;19;20025;-43
2022/06/16 10:34:54;;;;;;;6.38;2.60;;;;;;;26.72;37.00;102182.78;7393519;19;20014;-43
2022/06/16 10:37:26;;;;;;;6.03;2.70;;;;;;;26.63;37.87;102177.34;7394712;19;20037;-44
2022/06/16 10:40:01;;;;;;;4.03;2.53;;;;;;;26.06;37.70;102173.44;7392222;19;20014;-44
2022/06/16 10:42:34;;;;;;;4.68;2.28;;;;;;;26.45;39.96;102179.88;7395067;19;20018;-43
2022/06/16 10:45:13;;;;;;;4.88;2.50;;;;;;;26.82;39.11;102172.00;7393683;19;20100;-43
2022/06/16 10:47:53;;;;;;;4.30;2.55;;;;;;;26.61;38.14;102190.94;7393265;19;20011;-43
2022/06/16 10:50:27;;;;;;;4.53;2.38;;;;;;;26.72;38.23;102184.59;7393646;19;20023;-43
2022/06/16 10:53:01;;;;;;;4.75;2.30;;;;;;;26.64;39.18;102182.59;7396105;19;20026;-43
2022/06/16 10:55:40;;;;;;;5.10;2.55;;;;;;;27.23;38.33;102179.88;7393476;19;20467;-43
2022/06/16 10:58:17;;;;;;;5.15;2.53;;;;;;;27.42;37.51;102174.50;7392482;19;20011;-43
2022/06/16 11:01:03;;;;;;;13.07;3.08;;;;;;;27.51;37.41;102167.38;7393736;19;20340;-44
2022/06/16 11:03:44;;;;;;;4.50;2.83;;;;;;;27.51;35.81;102164.69;7392471;19;20025;-43
2022/06/16 11:06:15;;;;;;;8.98;2.80;;;;;;;27.85;36.01;102153.34;7394123;19;20014;-43
2022/06/16 11:08:49;;;;;;;5.57;2.60;;;;;;;27.93;36.37;102161.53;7393477;19;20360;-43
2022/06/16 11:11:20;;;;;;;4.22;2.65;;;;;;;27.93;35.25;102161.53;7392215;19;20011;-43
2022/06/16 11:13:56;;;;;;;6.85;3.38;;;;;;;27.49;35.18;102155.91;7393031;19;20015;-42
2022/06/16 11:16:30;;;;;;;8.32;2.70;;;;;;;28.02;35.17;102161.66;7393937;19;20336;-42
2022/06/16 11:19:10;;;;;;;15.23;3.42;;;;;;;28.40;35.50;102170.47;7393074;19;20014;-42
2022/06/16 11:21:46;;;;;;;5.35;2.28;;;;;;;28.56;33.97;102170.66;7393860;19;20014;-43
2022/06/16 11:24:25;;;;;;;8.38;2.97;;;;;;;28.81;34.12;102168.19;7392711;19;20077;-43
2022/06/16 11:27:04;;;;;;;6.18;2.40;;;;;;;29.14;33.99;102174.72;7394895;19;20019;-44
2022/06/16 11:29:35;;;;;;;12.20;2.60;;;;;;;29.43;32.93;102179.00;7393576;19;20014;-43
2022/06/16 11:32:10;;;;;;;8.02;2.90;;;;;;;29.96;32.17;102174.38;7396611;19;20014;-45
2022/06/16 11:34:45;;;;;;;3.30;2.45;;;;;;;30.13;29.81;102180.69;7393483;19;20010;-45
2022/06/16 11:37:41;;;;;;;7.25;2.58;;;;;;;30.16;32.46;102180.34;7397726;19;20023;-42
2022/06/16 11:40:21;;;;;;;11.55;3.58;;;;;;;30.66;31.07;102185.84;7393594;19;20007;-42
2022/06/16 11:43:09;;;;;;;7.63;3.40;;;;;;;30.56;30.47;102183.31;7393477;19;20011;-43
2022/06/16 11:45:45;;;;;;;9.90;3.53;;;;;;;31.08;30.15;102184.03;7394342;19;20019;-42
2022/06/16 11:48:24;;;;;;;4.28;2.20;;;;;;;31.44;28.85;102189.91;7395492;19;20026;-42
2022/06/16 11:51:03;;;;;;;4.28;2.45;;;;;;;31.51;29.29;102173.81;7394527;19;20022;-43
2022/06/16 11:53:46;;;;;;;6.15;2.67;;;;;;;31.67;29.09;102176.47;7392062;19;20022;-42
2022/06/16 11:56:21;;;;;;;4.18;2.40;;;;;;;32.25;29.16;102168.94;7393329;19;20019;-42
2022/06/16 11:59:18;;;;;;;4.18;2.35;;;;;;;32.29;27.90;102166.69;7393490;19;20021;-42
2022/06/16 12:01:49;;;;;;;5.28;2.30;;;;;;;32.66;27.14;102170.50;7393977;19;20021;-44
2022/06/16 12:04:53;;;;;;;13.27;10.13;;;;;;;32.23;27.39;102170.97;7393071;19;20023;-42
2022/06/16 12:07:44;;;;;;;3.88;2.10;;;;;;;31.63;28.91;102177.84;7392874;19;20109;-45
2022/06/16 12:10:23;;;;;;;11.90;2.40;;;;;;;31.91;28.60;102172.81;7397593;19;20452;-42
2022/06/16 12:13:01;;;;;;;5.57;2.53;;;;;;;31.72;29.00;102178.66;7400773;19;20360;-43
2022/06/16 12:15:36;;;;;;;6.13;2.80;;;;;;;31.32;29.03;102173.16;7402267;19;20017;-43
2022/06/16 12:18:18;;;;;;;6.07;2.58;;;;;;;31.68;29.63;102180.00;7399251;19;20015;-43
2022/06/16 12:21:00;;;;;;;5.80;2.53;;;;;;;31.91;29.31;102161.13;7390602;19;20007;-43
2022/06/16 12:23:36;;;;;;;13.07;3.38;;;;;;;31.91;28.89;102166.56;7397315;19;20010;-45
2022/06/16 12:26:15;;;;;;;3.67;2.22;;;;;;;31.83;28.43;102167.44;7403751;19;20025;-43
2022/06/16 12:28:52;;;;;;;12.60;2.83;;;;;;;31.77;28.18;102165.44;7409647;19;20022;-44